Time;durP1;ratioP1;P1;durP2;ratioP2;P2;SDS_P1;SDS_P2;PMS_P1;PMS_P2;Temp;Humidity;BMP_temperature;BMP_pressure;BME280_temperature;BME280_humidity;BME280_pressure;Samples;Min_cycle;Max_cycle;Signal;HPM_P1;HPM_P2
2021/03/31 00:03:02;;;;;;;14.27;7.43;;;;;;;;;;5052921;28;20029;-73
2021/03/31 00:06:07;;;;;;;13.55;7.15;;;;;;;;;;5052853;28;20028;-72
2021/03/31 00:09:11;;;;;;;10.98;6.60;;;;;;;;;;5052072;28;20051;-73
2021/03/31 00:12:15;;;;;;;11.50;7.13;;;;;;;;;;5052670;28;20052;-72
2021/03/31 00:15:20;;;;;;;13.18;7.32;;;;;;;;;;5051841;28;20127;-71
2021/03/31 00:18:25;;;;;;;13.32;7.63;;;;;;;;;;5052514;28;20025;-72
2021/03/31 00:21:30;;;;;;;17.08;8.77;;;;;;;;;;5052041;28;20048;-72
2021/03/31 00:24:35;;;;;;;16.10;9.30;;;;;;;;;;5052346;28;20041;-72
2021/03/31 00:27:40;;;;;;;17.20;8.93;;;;;;;;;;5052768;28;20044;-73
2021/03/31 00:30:45;;;;;;;14.57;8.80;;;;;;;;;;5051977;28;20033;-73
2021/03/31 00:33:49;;;;;;;12.75;8.75;;;;;;;;;;5052276;28;20088;-73
2021/03/31 00:36:53;;;;;;;18.08;9.15;;;;;;;;;;5052449;28;20627;-71
2021/03/31 00:39:58;;;;;;;18.58;8.70;;;;;;;;;;5052368;28;20037;-72
2021/03/31 00:43:02;;;;;;;16.17;9.48;;;;;;;;;;5051420;28;20048;-73
2021/03/31 00:46:07;;;;;;;16.58;9.40;;;;;;;;;;5051540;28;20551;-73
2021/03/31 00:49:11;;;;;;;18.95;8.93;;;;;;;;;;5051437;28;20069;-72
2021/03/31 00:52:15;;;;;;;20.42;9.68;;;;;;;;;;5052304;28;20052;-73
2021/03/31 00:55:22;;;;;;;25.17;9.32;;;;;;;;;;5039749;28;20045;-73
2021/03/31 00:58:27;;;;;;;20.25;9.32;;;;;;;;;;5051242;28;20037;-72
2021/03/31 01:01:31;;;;;;;15.50;7.88;;;;;;;;;;5051804;28;20039;-72
2021/03/31 01:04:36;;;;;;;15.05;9.23;;;;;;;;;;5051192;28;20041;-73
2021/03/31 01:07:40;;;;;;;20.13;8.80;;;;;;;;;;5051896;28;20041;-73
2021/03/31 01:10:47;;;;;;;26.25;9.40;;;;;;;;;;5051832;28;20041;-72
2021/03/31 01:13:51;;;;;;;15.02;9.10;;;;;;;;;;5051579;28;20041;-71
2021/03/31 01:17:02;;;;;;;19.30;8.73;;;;;;;;;;5051558;28;20037;-73
2021/03/31 01:20:07;;;;;;;17.58;9.48;;;;;;;;;;5051645;28;20041;-71
2021/03/31 01:23:30;;;;;;;16.35;9.52;;;;;;;;;;5050630;28;20412;-72
2021/03/31 01:26:37;;;;;;;13.00;8.60;;;;;;;;;;5051289;28;20041;-73
2021/03/31 01:29:52;;;;;;;19.73;9.02;;;;;;;;;;5050426;28;20045;-71
2021/03/31 01:32:59;;;;;;;16.70;8.68;;;;;;;;;;5051366;28;20057;-72
2021/03/31 01:36:03;;;;;;;13.02;8.40;;;;;;;;;;5051437;28;20409;-73
2021/03/31 01:39:10;;;;;;;17.85;9.60;;;;;;;;;;5051278;28;20040;-73
2021/03/31 01:42:15;;;;;;;17.65;9.20;;;;;;;;;;5051399;28;20512;-70
2021/03/31 01:45:22;;;;;;;22.02;9.82;;;;;;;;;;5050355;28;20503;-72
2021/03/31 01:48:32;;;;;;;19.25;9.93;;;;;;;;;;5051342;28;20033;-71
2021/03/31 01:51:36;;;;;;;18.50;9.93;;;;;;;;;;5051280;28;20037;-72
2021/03/31 01:54:45;;;;;;;22.13;9.65;;;;;;;;;;5051296;28;20521;-72
2021/03/31 01:57:50;;;;;;;16.70;8.70;;;;;;;;;;5050922;28;20029;-72
2021/03/31 02:00:54;;;;;;;16.45;8.50;;;;;;;;;;5051300;28;20044;-72
2021/03/31 02:03:59;;;;;;;17.40;8.95;;;;;;;;;;5051187;28;20033;-72
2021/03/31 02:07:05;;;;;;;17.67;8.52;;;;;;;;;;5050462;28;20050;-72
2021/03/31 02:10:11;;;;;;;16.85;9.13;;;;;;;;;;5050850;28;20037;-71
2021/03/31 02:13:15;;;;;;;16.50;9.00;;;;;;;;;;5050900;28;20045;-71
2021/03/31 02:16:20;;;;;;;13.25;8.82;;;;;;;;;;5051048;28;20041;-73
2021/03/31 02:19:25;;;;;;;18.73;9.20;;;;;;;;;;5049967;28;20048;-72
2021/03/31 02:22:30;;;;;;;17.58;9.27;;;;;;;;;;5051191;28;20246;-72
2021/03/31 02:25:34;;;;;;;15.75;8.52;;;;;;;;;;5050725;28;20052;-73
2021/03/31 02:28:39;;;;;;;19.75;9.15;;;;;;;;;;5051038;28;20650;-71
2021/03/31 02:31:45;;;;;;;13.63;8.50;;;;;;;;;;5050191;28;20566;-72
2021/03/31 02:34:53;;;;;;;14.43;8.65;;;;;;;;;;5050646;28;20045;-72
2021/03/31 02:38:00;;;;;;;19.48;9.68;;;;;;;;;;5051112;28;20037;-72
2021/03/31 02:41:05;;;;;;;20.15;9.18;;;;;;;;;;5050971;28;20033;-71
2021/03/31 02:44:10;;;;;;;16.75;9.10;;;;;;;;;;5050718;28;20037;-73
2021/03/31 02:47:16;;;;;;;14.05;9.15;;;;;;;;;;5050046;28;20039;-73
2021/03/31 02:50:21;;;;;;;17.38;9.30;;;;;;;;;;5050668;28;20041;-73
2021/03/31 02:53:26;;;;;;;18.38;9.85;;;;;;;;;;5050492;28;20057;-71
2021/03/31 02:56:30;;;;;;;18.95;9.57;;;;;;;;;;5053185;28;20505;-72
2021/03/31 02:59:34;;;;;;;15.38;9.20;;;;;;;;;;5054369;28;20041;-73
2021/03/31 03:02:40;;;;;;;19.15;9.75;;;;;;;;;;5054204;28;20041;-73
2021/03/31 03:05:45;;;;;;;17.80;9.00;;;;;;;;;;5054393;28;20040;-73
2021/03/31 03:08:49;;;;;;;14.73;9.82;;;;;;;;;;5054096;28;20043;-71
2021/03/31 03:11:54;;;;;;;17.50;9.38;;;;;;;;;;5054307;28;20042;-73
2021/03/31 03:14:58;;;;;;;22.77;9.32;;;;;;;;;;5053225;28;20056;-72
2021/03/31 03:18:03;;;;;;;18.90;9.43;;;;;;;;;;5054094;28;20044;-72
2021/03/31 03:21:08;;;;;;;18.02;8.48;;;;;;;;;;5053900;28;20045;-71
2021/03/31 03:24:13;;;;;;;14.93;8.98;;;;;;;;;;5053645;28;20051;-72
2021/03/31 03:27:18;;;;;;;19.10;9.25;;;;;;;;;;5053223;28;20044;-73
2021/03/31 03:30:22;;;;;;;17.67;8.60;;;;;;;;;;5053704;28;20042;-73
2021/03/31 03:33:27;;;;;;;22.60;11.45;;;;;;;;;;5053573;28;20059;-72
2021/03/31 03:36:31;;;;;;;20.90;11.00;;;;;;;;;;5053486;28;20052;-72
2021/03/31 03:39:36;;;;;;;23.98;10.43;;;;;;;;;;5053595;28;20040;-72
2021/03/31 03:42:41;;;;;;;15.98;9.80;;;;;;;;;;5053624;28;20507;-73
2021/03/31 03:45:47;;;;;;;20.52;9.35;;;;;;;;;;5053728;28;20044;-72
2021/03/31 03:48:51;;;;;;;18.50;9.88;;;;;;;;;;5052704;28;20559;-72
2021/03/31 03:51:56;;;;;;;15.95;9.88;;;;;;;;;;5053168;28;20037;-73
2021/03/31 03:55:00;;;;;;;16.58;10.18;;;;;;;;;;5053423;28;20049;-72
2021/03/31 03:58:07;;;;;;;17.10;9.60;;;;;;;;;;5053169;28;20048;-72
2021/03/31 04:01:11;;;;;;;20.92;9.90;;;;;;;;;;5053351;28;20037;-72
2021/03/31 04:04:15;;;;;;;20.63;9.90;;;;;;;;;;5053059;28;20044;-72
2021/03/31 04:07:19;;;;;;;22.48;9.85;;;;;;;;;;5052576;28;20032;-71
2021/03/31 04:10:25;;;;;;;21.33;11.05;;;;;;;;;;5053060;28;20049;-73
2021/03/31 04:13:30;;;;;;;14.30;9.40;;;;;;;;;;5052897;28;20091;-73
2021/03/31 04:16:36;;;;;;;16.27;10.02;;;;;;;;;;5052148;28;20040;-72
2021/03/31 04:19:41;;;;;;;19.65;10.82;;;;;;;;;;5052593;28;20071;-73
2021/03/31 04:22:46;;;;;;;19.58;9.88;;;;;;;;;;5051887;28;20495;-72
2021/03/31 04:25:51;;;;;;;19.45;10.25;;;;;;;;;;5052703;28;20048;-72
2021/03/31 04:28:55;;;;;;;18.70;10.00;;;;;;;;;;5052708;28;20048;-73
2021/03/31 04:32:00;;;;;;;20.60;9.38;;;;;;;;;;5052415;28;20083;-73
2021/03/31 04:35:04;;;;;;;17.33;9.85;;;;;;;;;;5052578;28;20378;-72
2021/03/31 04:38:13;;;;;;;30.05;10.40;;;;;;;;;;5052273;28;20036;-73
2021/03/31 04:41:18;;;;;;;21.38;9.63;;;;;;;;;;5051412;28;20040;-73
2021/03/31 04:44:22;;;;;;;32.75;13.50;;;;;;;;;;5051925;28;20039;-72
2021/03/31 04:47:27;;;;;;;25.90;12.50;;;;;;;;;;5052464;28;20060;-74
2021/03/31 04:50:37;;;;;;;31.88;10.20;;;;;;;;;;5052124;28;20044;-71
2021/03/31 04:53:41;;;;;;;24.35;9.68;;;;;;;;;;5052031;28;20075;-73
2021/03/31 04:56:45;;;;;;;26.10;10.13;;;;;;;;;;5052582;28;20037;-72
2021/03/31 04:59:49;;;;;;;23.80;9.43;;;;;;;;;;5051899;28;20058;-72
2021/03/31 05:02:54;;;;;;;17.73;9.10;;;;;;;;;;5052197;28;20041;-73
2021/03/31 05:05:58;;;;;;;18.58;8.98;;;;;;;;;;5052096;28;20369;-73
2021/03/31 05:09:03;;;;;;;23.73;8.75;;;;;;;;;;5051707;28;20052;-73
2021/03/31 05:12:08;;;;;;;22.75;9.80;;;;;;;;;;5051944;28;20032;-73
2021/03/31 05:15:12;;;;;;;20.48;10.05;;;;;;;;;;5051301;28;20041;-73
2021/03/31 05:18:16;;;;;;;25.48;9.82;;;;;;;;;;5050145;28;20064;-73
2021/03/31 05:21:21;;;;;;;16.50;9.52;;;;;;;;;;5051806;28;20029;-73
2021/03/31 05:24:25;;;;;;;28.20;10.65;;;;;;;;;;5051327;28;20058;-73
2021/03/31 05:27:30;;;;;;;30.35;11.63;;;;;;;;;;5051926;28;20170;-71
2021/03/31 05:30:34;;;;;;;28.40;10.52;;;;;;;;;;5050753;28;20405;-62
2021/03/31 05:33:39;;;;;;;29.45;16.17;;;;;;;;;;5051300;28;20048;-63
2021/03/31 05:36:43;;;;;;;34.17;14.25;;;;;;;;;;5051171;28;20040;-62
2021/03/31 05:39:47;;;;;;;39.38;21.38;;;;;;;;;;5051409;28;20064;-65
2021/03/31 05:42:52;;;;;;;50.13;14.35;;;;;;;;;;5050490;28;20118;-63
2021/03/31 05:45:57;;;;;;;40.70;17.27;;;;;;;;;;5050260;28;20036;-61
2021/03/31 05:49:02;;;;;;;44.40;15.15;;;;;;;;;;5050934;28;20044;-63
2021/03/31 05:52:10;;;;;;;60.50;17.25;;;;;;;;;;5051084;28;20044;-62
2021/03/31 05:55:15;;;;;;;48.42;20.83;;;;;;;;;;5051090;28;20512;-62
2021/03/31 05:58:20;;;;;;;32.88;13.32;;;;;;;;;;5050813;28;20048;-64
2021/03/31 06:01:24;;;;;;;29.80;13.48;;;;;;;;;;5051186;28;20048;-63
2021/03/31 06:04:28;;;;;;;51.13;15.20;;;;;;;;;;5050973;28;20036;-63
2021/03/31 06:07:33;;;;;;;30.38;15.30;;;;;;;;;;5051081;28;20048;-64
2021/03/31 06:10:38;;;;;;;38.33;16.58;;;;;;;;;;5050227;28;20040;-63
2021/03/31 06:13:49;;;;;;;42.72;16.08;;;;;;;;;;5050713;28;20044;-63
2021/03/31 06:16:54;;;;;;;;;;;;;;;;;;5051138;28;20381;-62
2021/03/31 06:19:58;;;;;;;40.03;16.75;;;;;;;;;;5049584;28;20280;-62
2021/03/31 06:23:12;;;;;;;40.92;18.92;;;;;;;;;;5050903;28;20056;-61
2021/03/31 06:26:17;;;;;;;31.60;15.80;;;;;;;;;;5050641;28;20040;-61
2021/03/31 06:29:21;;;;;;;46.28;17.25;;;;;;;;;;5050680;28;20055;-63
2021/03/31 06:32:25;;;;;;;35.85;14.68;;;;;;;;;;5054436;28;20063;-61
2021/03/31 06:35:30;;;;;;;25.95;13.30;;;;;;;;;;5054864;28;20048;-60
2021/03/31 06:38:36;;;;;;;37.38;14.52;;;;;;;;;;5054555;28;20047;-61
2021/03/31 06:41:49;;;;;;;34.60;13.60;;;;;;;;;;5054670;28;20055;-61
2021/03/31 06:48:05;;;;;;;27.80;12.13;;;;;;;;;;5054171;28;20048;-61
2021/03/31 06:51:26;;;;;;;28.85;12.15;;;;;;;;;;5054156;28;20048;-61
2021/03/31 06:54:40;;;;;;;25.90;12.70;;;;;;;;;;5054049;28;20056;-62
2021/03/31 06:57:51;;;;;;;38.30;12.95;;;;;;;;;;5054508;28;20051;-62
2021/03/31 07:00:55;;;;;;;35.80;13.55;;;;;;;;;;5053960;28;20044;-61
2021/03/31 07:04:01;;;;;;;28.63;11.73;;;;;;;;;;5054135;28;20044;-63
2021/03/31 07:07:11;;;;;;;31.70;10.25;;;;;;;;;;5054115;28;20051;-62
2021/03/31 07:10:22;;;;;;;31.92;10.43;;;;;;;;;;5054032;28;20055;-62
2021/03/31 07:13:37;;;;;;;23.52;8.05;;;;;;;;;;5053960;28;20052;-63
2021/03/31 07:16:42;;;;;;;22.15;8.32;;;;;;;;;;5054023;28;20054;-62
2021/03/31 07:19:47;;;;;;;23.90;7.70;;;;;;;;;;5053835;28;20033;-62
2021/03/31 07:22:53;;;;;;;25.15;7.70;;;;;;;;;;5053585;28;20044;-63
2021/03/31 07:25:58;;;;;;;18.67;7.03;;;;;;;;;;5053874;28;20049;-63
2021/03/31 07:29:02;;;;;;;13.77;5.57;;;;;;;;;;5053381;28;20378;-62
2021/03/31 07:32:09;;;;;;;17.02;6.50;;;;;;;;;;5053907;28;20048;-62
2021/03/31 07:35:13;;;;;;;11.52;6.05;;;;;;;;;;5053806;28;20044;-63
2021/03/31 07:38:19;;;;;;;13.90;6.53;;;;;;;;;;5053549;28;20050;-61
2021/03/31 07:41:23;;;;;;;18.70;6.90;;;;;;;;;;5051436;28;20041;-61
2021/03/31 07:44:32;;;;;;;14.20;6.18;;;;;;;;;;5053459;28;20041;-64
2021/03/31 07:47:37;;;;;;;18.98;6.82;;;;;;;;;;5053370;28;20037;-62
2021/03/31 07:50:41;;;;;;;19.70;8.35;;;;;;;;;;5052961;28;20037;-62
2021/03/31 07:53:46;;;;;;;12.73;5.90;;;;;;;;;;5052106;28;20053;-62
2021/03/31 07:56:50;;;;;;;18.33;7.50;;;;;;;;;;5052906;28;20043;-62
2021/03/31 07:59:55;;;;;;;18.38;6.53;;;;;;;;;;5052117;28;20507;-64
2021/03/31 08:02:59;;;;;;;13.20;5.80;;;;;;;;;;5052703;28;20041;-62
2021/03/31 08:06:04;;;;;;;13.05;6.35;;;;;;;;;;5052904;28;20025;-62
2021/03/31 08:09:27;;;;;;;12.73;6.00;;;;;;;;;;5052701;28;20686;-62
2021/03/31 08:12:33;;;;;;;11.93;5.57;;;;;;;;;;5053000;28;20033;-63
2021/03/31 08:15:41;;;;;;;11.95;5.10;;;;;;;;;;5052828;28;20048;-64
2021/03/31 08:18:46;;;;;;;17.33;5.50;;;;;;;;;;5052655;28;20037;-61
2021/03/31 08:21:52;;;;;;;10.38;4.85;;;;;;;;;;5052842;28;20094;-62
2021/03/31 08:24:58;;;;;;;9.45;5.15;;;;;;;;;;5052475;28;20048;-61
2021/03/31 08:28:07;;;;;;;18.23;4.95;;;;;;;;;;5051975;28;20048;-63
2021/03/31 08:31:18;;;;;;;17.50;5.70;;;;;;;;;;5051706;28;20048;-63
2021/03/31 08:34:24;;;;;;;9.45;5.13;;;;;;;;;;5040004;28;20045;-61
2021/03/31 08:37:29;;;;;;;12.07;5.65;;;;;;;;;;5052279;28;20033;-64
2021/03/31 08:40:37;;;;;;;10.07;5.10;;;;;;;;;;5051475;28;20515;-61
2021/03/31 08:43:44;;;;;;;9.98;4.72;;;;;;;;;;5052588;28;20044;-61
2021/03/31 08:46:48;;;;;;;7.00;4.97;;;;;;;;;;5052484;28;20354;-62
2021/03/31 08:50:00;;;;;;;8.20;4.82;;;;;;;;;;5052115;28;20029;-65
2021/03/31 08:53:06;;;;;;;10.55;5.13;;;;;;;;;;5052041;28;20176;-62
2021/03/31 08:56:20;;;;;;;10.07;4.78;;;;;;;;;;5052317;28;20041;-61
2021/03/31 08:59:32;;;;;;;8.63;4.72;;;;;;;;;;5051839;28;20045;-62
2021/03/31 09:02:42;;;;;;;11.60;4.68;;;;;;;;;;5052477;28;20045;-63
2021/03/31 09:06:03;;;;;;;9.52;4.93;;;;;;;;;;5052034;28;20484;-63
2021/03/31 09:09:07;;;;;;;14.73;5.72;;;;;;;;;;5051867;28;20432;-63
2021/03/31 09:12:13;;;;;;;9.55;4.70;;;;;;;;;;5051606;28;20032;-62
2021/03/31 09:15:17;;;;;;;7.82;4.68;;;;;;;;;;5050133;28;20385;-61
2021/03/31 09:18:22;;;;;;;8.75;4.03;;;;;;;;;;5051317;28;20041;-61
2021/03/31 09:21:27;;;;;;;10.00;4.72;;;;;;;;;;5050647;28;20374;-60
2021/03/31 09:24:31;;;;;;;6.20;4.18;;;;;;;;;;5050626;28;20077;-60
2021/03/31 09:27:36;;;;;;;10.02;4.18;;;;;;;;;;5051309;28;20061;-62
2021/03/31 09:30:40;;;;;;;10.48;4.50;;;;;;;;;;5051148;28;20040;-60
2021/03/31 09:33:45;;;;;;;9.93;4.80;;;;;;;;;;5050913;28;20041;-60
2021/03/31 09:37:08;;;;;;;8.10;4.43;;;;;;;;;;5051353;28;20056;-60
2021/03/31 09:40:19;;;;;;;29.13;5.97;;;;;;;;;;5050653;28;20036;-62
2021/03/31 09:43:23;;;;;;;9.93;4.60;;;;;;;;;;5051428;28;20037;-63
2021/03/31 09:46:28;;;;;;;5.95;4.40;;;;;;;;;;5050318;28;20037;-62
2021/03/31 09:49:35;;;;;;;9.10;4.40;;;;;;;;;;5050697;28;20033;-60
2021/03/31 09:52:39;;;;;;;9.27;4.13;;;;;;;;;;5050507;28;20041;-61
2021/03/31 09:55:44;;;;;;;8.55;4.10;;;;;;;;;;5051150;28;20056;-61
2021/03/31 09:58:49;;;;;;;6.13;4.00;;;;;;;;;;5051208;28;20378;-61
2021/03/31 10:01:54;;;;;;;11.25;4.80;;;;;;;;;;5049921;28;20041;-62
2021/03/31 10:05:03;;;;;;;12.60;4.82;;;;;;;;;;5052092;28;20052;-60
2021/03/31 10:08:10;;;;;;;14.95;4.60;;;;;;;;;;5054791;28;20045;-60
2021/03/31 10:11:25;;;;;;;10.52;4.47;;;;;;;;;;5055043;28;20052;-61
2021/03/31 10:14:29;;;;;;;10.85;5.00;;;;;;;;;;5054733;28;20536;-60
2021/03/31 10:17:33;;;;;;;8.93;4.78;;;;;;;;;;5054689;28;20045;-60
2021/03/31 10:20:45;;;;;;;5.47;3.97;;;;;;;;;;5054583;28;20029;-60
2021/03/31 10:23:50;;;;;;;;;;;;;;;;;;5054084;28;20512;-61
2021/03/31 10:26:54;;;;;;;8.85;4.22;;;;;;;;;;5054538;28;19979;-61
2021/03/31 10:29:59;;;;;;;7.90;4.35;;;;;;;;;;5054587;28;20044;-61
2021/03/31 10:33:03;;;;;;;10.77;4.57;;;;;;;;;;5054371;28;20037;-62
2021/03/31 10:36:08;;;;;;;7.10;4.45;;;;;;;;;;5054396;28;20060;-62
2021/03/31 10:52:50;;;;;;;9.05;4.20;;;;;;;;;;5054024;28;20044;-61
2021/03/31 10:55:54;;;;;;;10.02;4.93;;;;;;;;;;5054316;28;20045;-61
2021/03/31 10:58:58;;;;;;;7.68;4.32;;;;;;;;;;5054439;28;20041;-61
2021/03/31 11:02:03;;;;;;;10.20;4.63;;;;;;;;;;5054288;28;20045;-61
2021/03/31 11:05:09;;;;;;;6.82;4.57;;;;;;;;;;5054099;28;20052;-61
2021/03/31 11:08:13;;;;;;;10.65;4.35;;;;;;;;;;5053658;28;20370;-61
2021/03/31 11:11:18;;;;;;;7.35;4.47;;;;;;;;;;5052574;28;20481;-61
2021/03/31 11:14:22;;;;;;;8.98;4.60;;;;;;;;;;5053583;28;20056;-61
2021/03/31 11:27:01;;;;;;;9.13;5.05;;;;;;;;;;5053635;28;20033;-61
2021/03/31 11:30:10;;;;;;;9.82;4.80;;;;;;;;;;5053628;28;20037;-62
2021/03/31 11:33:15;;;;;;;8.07;4.40;;;;;;;;;;5053444;28;20037;-60
2021/03/31 11:36:19;;;;;;;6.88;3.85;;;;;;;;;;5053521;28;20045;-62
2021/03/31 11:39:24;;;;;;;9.00;4.50;;;;;;;;;;5053341;28;20037;-61
2021/03/31 11:42:28;;;;;;;11.57;4.65;;;;;;;;;;5053189;28;20041;-62
2021/03/31 11:45:32;;;;;;;7.50;4.32;;;;;;;;;;5053194;28;20036;-64
2021/03/31 11:48:37;;;;;;;7.38;4.80;;;;;;;;;;5053301;28;20053;-62
2021/03/31 11:51:42;;;;;;;7.72;4.43;;;;;;;;;;5053270;28;20037;-61
2021/03/31 11:54:46;;;;;;;6.45;3.67;;;;;;;;;;5053031;28;20505;-62
2021/03/31 11:57:51;;;;;;;7.32;4.40;;;;;;;;;;5053253;28;20040;-61
2021/03/31 12:00:55;;;;;;;6.35;3.85;;;;;;;;;;5052780;28;20037;-61
2021/03/31 12:04:00;;;;;;;8.88;4.38;;;;;;;;;;5052008;28;20041;-62
2021/03/31 12:07:05;;;;;;;5.78;3.72;;;;;;;;;;5052686;28;20040;-63
2021/03/31 12:10:10;;;;;;;11.30;4.40;;;;;;;;;;5052679;28;20037;-63
2021/03/31 12:13:14;;;;;;;5.85;4.22;;;;;;;;;;5052824;28;20054;-62
2021/03/31 12:16:19;;;;;;;7.22;3.80;;;;;;;;;;5052478;28;20056;-62
2021/03/31 12:19:24;;;;;;;10.60;4.40;;;;;;;;;;5052019;28;20378;-61
2021/03/31 12:22:28;;;;;;;8.98;3.15;;;;;;;;;;5052698;28;20381;-63
2021/03/31 12:25:34;;;;;;;8.07;3.47;;;;;;;;;;5052727;28;20370;-62
2021/03/31 12:28:39;;;;;;;8.93;3.70;;;;;;;;;;5052007;28;20056;-61
2021/03/31 12:31:43;;;;;;;9.65;4.18;;;;;;;;;;5052292;28;20496;-62
2021/03/31 12:34:47;;;;;;;10.80;3.85;;;;;;;;;;5052724;28;20041;-61
2021/03/31 12:37:54;;;;;;;6.40;3.60;;;;;;;;;;5052130;28;20037;-61
2021/03/31 12:40:58;;;;;;;5.95;3.50;;;;;;;;;;5052182;28;20476;-62
2021/03/31 12:44:03;;;;;;;4.57;3.30;;;;;;;;;;5051924;28;20352;-62
2021/03/31 12:47:07;;;;;;;5.30;3.38;;;;;;;;;;5051131;28;20041;-62
2021/03/31 12:50:16;;;;;;;5.32;3.47;;;;;;;;;;5051653;28;20025;-62
2021/03/31 12:53:25;;;;;;;9.07;3.15;;;;;;;;;;5051017;28;20041;-62
2021/03/31 12:56:29;;;;;;;4.97;3.30;;;;;;;;;;5051933;28;20048;-62
2021/03/31 12:59:34;;;;;;;7.90;3.10;;;;;;;;;;5051895;28;20358;-61
2021/03/31 13:02:38;;;;;;;8.40;3.03;;;;;;;;;;5052166;28;20365;-61
2021/03/31 13:05:43;;;;;;;7.68;3.22;;;;;;;;;;5051637;28;20028;-62
2021/03/31 13:08:52;;;;;;;8.30;3.08;;;;;;;;;;5051376;28;20045;-62
2021/03/31 13:11:58;;;;;;;9.23;3.45;;;;;;;;;;5051653;28;20045;-62
2021/03/31 13:22:01;;;;;;;12.32;3.42;;;;;;;;;;5051542;28;20040;-62
2021/03/31 13:22:25;;;;;;;9.43;3.40;;;;;;;;;;5051560;28;20048;-62
2021/03/31 13:34:33;;;;;;;4.57;3.10;;;;;;;;;;5051146;28;20492;-62
2021/03/31 13:37:48;;;;;;;5.95;3.22;;;;;;;;;;5050723;28;20033;-63
2021/03/31 13:40:52;;;;;;;7.20;3.58;;;;;;;;;;5049252;28;20037;-62
2021/03/31 13:43:57;;;;;;;7.22;3.30;;;;;;;;;;5051173;28;20045;-61
2021/03/31 13:47:05;;;;;;;7.03;3.40;;;;;;;;;;5051197;28;20032;-63
2021/03/31 13:50:11;;;;;;;6.75;3.15;;;;;;;;;;5051036;28;20044;-63
2021/03/31 13:53:19;;;;;;;7.78;3.15;;;;;;;;;;5051203;28;20037;-62
2021/03/31 13:56:37;;;;;;;11.73;3.58;;;;;;;;;;5051017;28;20045;-62
2021/03/31 13:59:41;;;;;;;7.22;3.70;;;;;;;;;;5051037;28;20044;-64
2021/03/31 14:02:46;;;;;;;8.68;3.88;;;;;;;;;;5050559;28;20041;-63
2021/03/31 14:05:51;;;;;;;11.45;6.40;;;;;;;;;;5050995;28;20033;-63
2021/03/31 14:08:56;;;;;;;14.40;5.35;;;;;;;;;;5050861;28;20051;-62
2021/03/31 14:12:00;;;;;;;19.00;9.98;;;;;;;;;;5050814;28;20044;-63
2021/03/31 14:15:05;;;;;;;15.75;6.65;;;;;;;;;;5050666;28;20436;-61
2021/03/31 14:18:10;;;;;;;14.02;4.80;;;;;;;;;;5050944;28;20045;-62
2021/03/31 14:21:14;;;;;;;7.13;3.65;;;;;;;;;;5050948;28;20049;-62
2021/03/31 14:24:19;;;;;;;7.07;3.63;;;;;;;;;;5050531;28;20373;-62
2021/03/31 14:27:23;;;;;;;6.82;3.60;;;;;;;;;;5050859;28;20041;-62
2021/03/31 14:30:27;;;;;;;11.82;3.60;;;;;;;;;;5049565;28;20036;-62
2021/03/31 14:33:31;;;;;;;7.55;3.22;;;;;;;;;;5049422;28;20037;-62
2021/03/31 14:36:36;;;;;;;11.70;4.57;;;;;;;;;;5050397;28;20049;-62
2021/03/31 14:39:40;;;;;;;11.60;3.90;;;;;;;;;;5050172;28;20044;-60
2021/03/31 14:42:46;;;;;;;10.93;4.07;;;;;;;;;;5050364;28;20059;-63
2021/03/31 14:45:50;;;;;;;6.50;3.53;;;;;;;;;;5050105;28;20056;-63
2021/03/31 14:48:55;;;;;;;9.63;3.85;;;;;;;;;;5049786;28;20037;-63
2021/03/31 15:01:34;;;;;;;13.65;5.50;;;;;;;;;;5054081;28;20048;-62
2021/03/31 15:04:39;;;;;;;18.67;4.78;;;;;;;;;;5054152;28;20036;-62
2021/03/31 15:07:44;;;;;;;18.25;6.72;;;;;;;;;;5052809;28;20056;-62
2021/03/31 15:10:49;;;;;;;21.23;6.63;;;;;;;;;;5053753;28;20040;-62
2021/03/31 15:13:53;;;;;;;11.27;4.63;;;;;;;;;;5053417;28;20041;-61
2021/03/31 15:16:58;;;;;;;9.35;4.47;;;;;;;;;;5053693;28;20045;-62
2021/03/31 15:20:09;;;;;;;10.48;3.85;;;;;;;;;;5053697;28;20041;-61
2021/03/31 15:23:26;;;;;;;9.98;3.83;;;;;;;;;;5053565;28;20053;-61
2021/03/31 15:26:31;;;;;;;6.88;3.35;;;;;;;;;;5053461;28;20370;-62
2021/03/31 15:29:35;;;;;;;9.15;3.70;;;;;;;;;;5053421;28;20037;-60
2021/03/31 15:32:40;;;;;;;12.52;3.88;;;;;;;;;;5053560;28;20382;-61
2021/03/31 15:35:44;;;;;;;7.57;3.15;;;;;;;;;;5053003;28;20041;-64
2021/03/31 15:38:49;;;;;;;14.38;4.20;;;;;;;;;;5053074;28;20477;-65
2021/03/31 15:41:57;;;;;;;23.40;6.20;;;;;;;;;;5053031;28;20405;-62
2021/03/31 15:45:03;;;;;;;12.48;4.43;;;;;;;;;;5052898;28;20044;-63
2021/03/31 15:48:11;;;;;;;24.08;14.20;;;;;;;;;;5053149;28;20048;-62
2021/03/31 15:51:15;;;;;;;10.25;5.70;;;;;;;;;;5052911;28;20036;-62
2021/03/31 15:54:20;;;;;;;16.02;5.20;;;;;;;;;;5052660;28;20045;-62
2021/03/31 15:57:24;;;;;;;13.63;4.28;;;;;;;;;;5052672;28;20049;-63
2021/03/31 16:00:28;;;;;;;12.13;4.97;;;;;;;;;;5052694;28;20040;-61
2021/03/31 16:03:35;;;;;;;9.95;4.80;;;;;;;;;;5051969;28;20052;-61
2021/03/31 16:10:04;;;;;;;19.02;4.93;;;;;;;;;;5052493;28;20153;-62
2021/03/31 16:13:10;;;;;;;9.02;4.63;;;;;;;;;;5052089;28;20406;-63
2021/03/31 16:16:14;;;;;;;23.48;4.97;;;;;;;;;;5052038;28;20192;-62
2021/03/31 16:19:19;;;;;;;12.95;3.75;;;;;;;;;;5052120;28;20036;-65
2021/03/31 16:22:23;;;;;;;11.98;7.38;;;;;;;;;;5052590;28;20044;-62
2021/03/31 16:25:28;;;;;;;10.60;4.38;;;;;;;;;;5052265;28;20041;-63
2021/03/31 16:31:37;;;;;;;21.15;13.35;;;;;;;;;;5052436;28;20044;-63
2021/03/31 16:34:42;;;;;;;13.90;5.60;;;;;;;;;;5052121;28;20056;-63
2021/03/31 16:37:46;;;;;;;11.50;5.07;;;;;;;;;;5051896;28;20508;-62
2021/03/31 16:40:51;;;;;;;11.20;4.57;;;;;;;;;;5052528;28;20048;-64
2021/03/31 16:43:55;;;;;;;26.50;14.32;;;;;;;;;;5052120;28;20203;-63
2021/03/31 16:47:00;;;;;;;14.68;4.78;;;;;;;;;;5052194;28;20059;-63
2021/03/31 16:50:04;;;;;;;11.88;4.25;;;;;;;;;;5051025;28;20048;-63
2021/03/31 16:53:09;;;;;;;17.42;5.60;;;;;;;;;;5052004;28;20062;-62
2021/03/31 16:56:13;;;;;;;39.67;28.88;;;;;;;;;;5051798;28;20041;-63
2021/03/31 16:59:18;;;;;;;18.25;10.45;;;;;;;;;;5052025;28;20048;-61
2021/03/31 17:02:23;;;;;;;15.55;7.07;;;;;;;;;;5051641;28;20063;-62
2021/03/31 17:05:27;;;;;;;15.45;5.93;;;;;;;;;;5051555;28;20039;-70
2021/03/31 17:08:31;;;;;;;14.27;6.07;;;;;;;;;;5051087;28;20054;-63
2021/03/31 17:11:37;;;;;;;18.92;6.32;;;;;;;;;;5050815;28;20044;-62
2021/03/31 17:14:41;;;;;;;16.92;5.70;;;;;;;;;;5051302;28;20040;-63
2021/03/31 17:17:46;;;;;;;13.20;6.40;;;;;;;;;;5051043;28;20401;-63
2021/03/31 17:20:51;;;;;;;23.75;6.40;;;;;;;;;;5051298;28;20052;-63
2021/03/31 17:23:55;;;;;;;23.95;6.38;;;;;;;;;;5050004;28;20057;-61
2021/03/31 17:26:59;;;;;;;14.05;6.43;;;;;;;;;;5051007;28;20397;-61
2021/03/31 17:30:04;;;;;;;12.63;6.32;;;;;;;;;;5051316;28;20044;-62
2021/03/31 17:33:09;;;;;;;16.98;7.68;;;;;;;;;;5050881;28;20033;-62
2021/03/31 17:36:14;;;;;;;38.08;10.57;;;;;;;;;;5049862;28;20496;-62
2021/03/31 17:39:18;;;;;;;32.72;11.75;;;;;;;;;;5050340;28;20040;-63
2021/03/31 17:42:23;;;;;;;24.17;10.90;;;;;;;;;;5050703;28;20040;-62
2021/03/31 17:45:27;;;;;;;18.40;9.95;;;;;;;;;;5049636;28;20040;-62
2021/03/31 17:48:31;;;;;;;18.42;8.25;;;;;;;;;;5050449;28;20037;-62
2021/03/31 17:51:39;;;;;;;20.85;8.30;;;;;;;;;;5050398;28;20056;-61
2021/03/31 17:54:43;;;;;;;29.35;10.60;;;;;;;;;;5050712;28;20060;-62
2021/03/31 17:57:48;;;;;;;23.55;11.80;;;;;;;;;;5050639;28;20044;-61
2021/03/31 18:00:52;;;;;;;24.85;8.93;;;;;;;;;;5051023;28;20048;-63
2021/03/31 18:03:56;;;;;;;21.20;9.75;;;;;;;;;;5049698;28;20036;-62
2021/03/31 18:07:02;;;;;;;25.33;10.25;;;;;;;;;;5049705;28;20036;-63
2021/03/31 18:10:08;;;;;;;31.38;13.07;;;;;;;;;;5050579;28;20396;-62
2021/03/31 18:13:12;;;;;;;27.40;12.48;;;;;;;;;;5050775;28;20040;-61
2021/03/31 18:16:17;;;;;;;28.92;12.10;;;;;;;;;;5049710;28;20056;-61
2021/03/31 18:19:21;;;;;;;29.20;12.38;;;;;;;;;;5050620;28;20037;-62
2021/03/31 18:22:26;;;;;;;22.35;11.95;;;;;;;;;;5050894;28;20499;-61
2021/03/31 18:25:31;;;;;;;22.10;13.55;;;;;;;;;;5050416;28;20072;-72
2021/03/31 18:28:35;;;;;;;40.05;12.88;;;;;;;;;;5053929;28;20060;-73
2021/03/31 18:31:40;;;;;;;44.20;19.40;;;;;;;;;;5054859;28;20487;-70
2021/03/31 18:34:44;;;;;;;40.05;16.85;;;;;;;;;;5054268;28;20048;-73
2021/03/31 18:37:49;;;;;;;29.30;13.98;;;;;;;;;;5053805;28;20072;-71
2021/03/31 18:44:16;;;;;;;28.55;13.20;;;;;;;;;;5296424;22;20065;-72
2021/03/31 18:47:24;;;;;;;26.80;13.07;;;;;;;;;;5014507;28;20396;-72
2021/03/31 18:50:29;;;;;;;24.52;12.50;;;;;;;;;;5014712;28;20071;-72
2021/03/31 18:53:33;;;;;;;29.88;15.77;;;;;;;;;;5014510;28;20060;-72
2021/03/31 18:56:37;;;;;;;30.25;11.75;;;;;;;;;;5014151;28;20082;-73
2021/03/31 18:59:42;;;;;;;38.13;19.05;;;;;;;;;;5013910;28;20045;-72
2021/03/31 19:02:46;;;;;;;39.13;16.42;;;;;;;;;;5014287;28;20044;-72
2021/03/31 19:05:51;;;;;;;22.65;12.73;;;;;;;;;;5014158;28;20041;-73
2021/03/31 19:12:18;;;;;;;35.45;14.65;;;;;;;;;;5014253;28;20032;-73
2021/03/31 19:15:22;;;;;;;43.05;18.48;;;;;;;;;;5013912;28;20068;-73
2021/03/31 19:18:26;;;;;;;47.10;23.05;;;;;;;;;;5014116;28;20389;-73
2021/03/31 19:21:34;;;;;;;54.42;27.13;;;;;;;;;;5014088;28;20045;-73